createdAt,value
2022-11-19T00:02:53.253Z,1005.93
2022-11-19T00:06:00.381Z,1005.94
2022-11-19T00:09:07.906Z,1005.88
2022-11-19T00:12:15.100Z,1005.87
2022-11-19T00:15:22.242Z,1005.85
2022-11-19T00:18:29.630Z,1005.95
2022-11-19T00:21:36.411Z,1005.93
2022-11-19T00:24:43.905Z,1005.98
2022-11-19T00:27:51.229Z,1006.00
2022-11-19T00:30:58.091Z,1005.99
2022-11-19T00:34:05.653Z,1006.07
2022-11-19T00:37:13.081Z,1006.06
2022-11-19T00:40:19.832Z,1006.04
2022-11-19T00:43:27.454Z,1006.10
2022-11-19T00:46:34.586Z,1006.08
2022-11-19T00:49:41.744Z,1006.10
2022-11-19T00:52:49.251Z,1006.06
2022-11-19T00:55:55.951Z,1006.14
2022-11-19T00:59:03.259Z,1006.11
2022-11-19T01:02:10.753Z,1006.14
2022-11-19T01:05:17.560Z,1006.12
2022-11-19T01:08:24.934Z,1006.12
2022-11-19T01:11:32.244Z,1006.20
2022-11-19T01:14:38.923Z,1006.16
2022-11-19T01:17:46.644Z,1006.23
2022-11-19T01:20:53.443Z,1006.29
2022-11-19T01:24:00.521Z,1006.21
2022-11-19T01:27:04.093Z,1006.20
2022-11-19T01:30:11.407Z,1006.27
2022-11-19T01:33:18.556Z,1006.35
2022-11-19T01:36:25.744Z,1006.29
2022-11-19T01:39:32.768Z,1006.36
2022-11-19T01:42:39.962Z,1006.31
2022-11-19T01:45:46.757Z,1006.39
2022-11-19T01:48:54.177Z,1006.42
2022-11-19T01:52:01.262Z,1006.37
2022-11-19T01:55:07.957Z,1006.36
2022-11-19T01:58:15.297Z,1006.40
2022-11-19T02:01:22.775Z,1006.38
2022-11-19T02:04:29.468Z,1006.41
2022-11-19T02:07:36.969Z,1006.43
2022-11-19T02:10:43.936Z,1006.44
2022-11-19T02:13:50.977Z,1006.50
2022-11-19T02:16:58.491Z,1006.48
2022-11-19T02:20:05.668Z,1006.45
2022-11-19T02:23:12.736Z,1006.43
2022-11-19T02:26:19.779Z,1006.38
2022-11-19T02:29:27.098Z,1006.34
2022-11-19T02:32:34.237Z,1006.42
2022-11-19T02:35:41.455Z,1006.45
2022-11-19T02:38:48.896Z,1006.48
2022-11-19T02:41:55.887Z,1006.55
2022-11-19T02:45:03.010Z,1006.58
2022-11-19T02:48:11.041Z,1006.63
2022-11-19T02:51:17.843Z,1006.59
2022-11-19T02:54:25.328Z,1006.70
2022-11-19T02:57:32.909Z,1006.69
2022-11-19T03:00:39.718Z,1006.68
2022-11-19T03:03:47.419Z,1006.69
2022-11-19T03:06:54.737Z,1006.70
2022-11-19T03:10:01.559Z,1006.72
2022-11-19T03:13:09.087Z,1006.72
2022-11-19T03:16:15.797Z,1006.72
2022-11-19T03:19:23.140Z,1006.84
2022-11-19T03:22:30.608Z,1006.78
2022-11-19T03:25:37.339Z,1006.79
2022-11-19T03:28:44.879Z,1006.84
2022-11-19T03:31:52.383Z,1006.83
2022-11-19T03:34:59.579Z,1006.84
2022-11-19T03:38:06.560Z,1006.86
2022-11-19T03:41:13.618Z,1007.03
2022-11-19T03:44:21.110Z,1007.01
2022-11-19T03:47:28.274Z,1006.98
2022-11-19T03:50:35.420Z,1007.04
2022-11-19T03:53:42.630Z,1007.04
2022-11-19T03:56:49.602Z,1007.17
2022-11-19T03:59:56.810Z,1007.15
2022-11-19T04:03:04.162Z,1007.26
2022-11-19T04:06:10.950Z,1007.32
2022-11-19T04:09:18.962Z,1007.33
2022-11-19T04:12:26.635Z,1007.32
2022-11-19T04:15:33.450Z,1007.32
2022-11-19T04:18:40.971Z,1007.37
2022-11-19T04:21:48.304Z,1007.33
2022-11-19T04:24:55.154Z,1007.36
2022-11-19T04:28:02.711Z,1007.35
2022-11-19T04:31:12.353Z,1007.29
2022-11-19T04:34:13.353Z,1007.26
2022-11-19T04:37:20.662Z,1007.30
2022-11-19T04:40:27.472Z,1007.26
2022-11-19T04:43:34.774Z,1007.30
2022-11-19T04:46:42.273Z,1007.23
2022-11-19T04:49:49.035Z,1007.26
2022-11-19T04:52:56.561Z,1007.24
2022-11-19T04:56:03.697Z,1007.24
2022-11-19T04:59:10.751Z,1007.27
2022-11-19T05:02:18.254Z,1007.27
2022-11-19T05:05:25.253Z,1007.21
2022-11-19T05:08:32.350Z,1007.21
2022-11-19T05:11:39.450Z,1007.20
2022-11-19T05:14:46.894Z,1007.23
2022-11-19T05:17:54.043Z,1007.20
2022-11-19T05:21:01.203Z,1007.21
2022-11-19T05:24:08.683Z,1007.13
2022-11-19T05:27:15.674Z,1007.19
2022-11-19T05:30:23.376Z,1007.17
2022-11-19T05:33:34.034Z,1007.23
2022-11-19T05:36:31.383Z,1007.24
2022-11-19T05:39:39.103Z,1007.26
2022-11-19T05:42:46.795Z,1007.33
2022-11-19T05:45:53.757Z,1007.32
2022-11-19T05:49:01.314Z,1007.33
2022-11-19T05:52:08.934Z,1007.36
2022-11-19T05:55:15.715Z,1007.35
2022-11-19T05:58:23.293Z,1007.43
2022-11-19T06:01:30.766Z,1007.42
2022-11-19T06:04:37.805Z,1007.42
2022-11-19T06:07:45.182Z,1007.41
2022-11-19T06:10:52.365Z,1007.46
2022-11-19T06:13:59.233Z,1007.54
2022-11-19T06:17:07.065Z,1007.65
2022-11-19T06:20:15.165Z,1007.54
2022-11-19T06:23:22.848Z,1007.64
2022-11-19T06:26:29.944Z,1007.63
2022-11-19T06:29:37.575Z,1007.69
2022-11-19T06:32:44.806Z,1007.78
2022-11-19T06:35:52.226Z,1007.81
2022-11-19T06:39:02.104Z,1007.75
2022-11-19T06:42:09.284Z,1007.72
2022-11-19T06:45:16.156Z,1007.76
2022-11-19T06:48:23.634Z,1007.83
2022-11-19T06:51:30.749Z,1007.79
2022-11-19T06:54:41.846Z,1007.80
2022-11-19T06:57:39.876Z,1007.82
2022-11-19T07:00:46.678Z,1007.87
2022-11-19T07:03:54.376Z,1007.88
2022-11-19T07:07:01.993Z,1007.91
2022-11-19T07:10:08.858Z,1007.88
2022-11-19T07:13:16.187Z,1007.90
2022-11-19T07:16:23.498Z,1007.87
2022-11-19T07:19:30.728Z,1007.94
2022-11-19T07:22:38.301Z,1008.01
2022-11-19T07:25:45.397Z,1008.09
2022-11-19T07:28:52.688Z,1008.01
2022-11-19T07:32:00.019Z,1008.04
2022-11-19T07:35:07.378Z,1008.06
2022-11-19T07:38:14.899Z,1008.05
2022-11-19T07:41:22.560Z,1008.12
2022-11-19T07:44:29.916Z,1008.19
2022-11-19T07:47:37.295Z,1008.15
2022-11-19T07:50:44.708Z,1008.08
2022-11-19T07:53:52.539Z,1008.08
2022-11-19T07:56:59.960Z,1008.02
2022-11-19T08:00:07.522Z,1007.96
2022-11-19T08:03:15.387Z,1007.99
2022-11-19T08:06:22.432Z,1008.07
2022-11-19T08:09:30.234Z,1008.07
2022-11-19T08:12:38.015Z,1008.11
2022-11-19T08:15:45.121Z,1007.98
2022-11-19T08:18:52.919Z,1008.03
2022-11-19T08:22:00.650Z,1008.01
2022-11-19T08:25:07.712Z,1008.02
2022-11-19T08:28:15.521Z,1007.95
2022-11-19T08:31:22.862Z,1007.92
2022-11-19T08:34:30.113Z,1007.98
2022-11-19T08:37:37.792Z,1007.86
2022-11-19T08:40:45.172Z,1007.95
2022-11-19T08:43:52.639Z,1007.93
2022-11-19T08:47:00.370Z,1007.84
2022-11-19T08:50:07.832Z,1007.86
2022-11-19T08:53:15.331Z,1007.85
2022-11-19T08:56:22.691Z,1007.87
2022-11-19T08:59:30.270Z,1007.91
2022-11-19T09:02:37.798Z,1007.97
2022-11-19T09:05:45.061Z,1007.93
2022-11-19T09:08:52.500Z,1007.93
2022-11-19T09:12:00.500Z,1008.01
2022-11-19T09:15:07.821Z,1007.99
2022-11-19T09:18:15.273Z,1008.08
2022-11-19T09:21:22.593Z,1007.98
2022-11-19T09:24:30.352Z,1008.01
2022-11-19T09:27:37.820Z,1008.05
2022-11-19T09:30:45.273Z,1008.02
2022-11-19T09:33:53.214Z,1007.98
2022-11-19T09:37:00.883Z,1007.94
2022-11-19T09:40:07.832Z,1007.92
2022-11-19T09:43:15.854Z,1007.97
2022-11-19T09:46:22.884Z,1007.96
2022-11-19T09:49:30.644Z,1007.92
2022-11-19T09:52:38.579Z,1007.85
2022-11-19T09:55:45.634Z,1007.86
2022-11-19T09:58:53.714Z,1007.88
2022-11-19T10:02:01.252Z,1007.78
2022-11-19T10:05:08.704Z,1007.85
2022-11-19T10:08:16.325Z,1007.82
2022-11-19T10:11:23.815Z,1007.84
2022-11-19T10:14:31.697Z,1007.76
2022-11-19T10:17:39.213Z,1007.63
2022-11-19T10:20:46.605Z,1007.63
2022-11-19T10:23:53.948Z,1007.57
2022-11-19T10:27:07.234Z,1007.53
2022-11-19T10:30:05.304Z,1007.54
2022-11-19T10:33:13.545Z,1007.61
2022-11-19T10:36:20.988Z,1007.59
2022-11-19T10:39:28.571Z,1007.63
2022-11-19T10:42:36.007Z,1007.63
2022-11-19T10:45:43.490Z,1007.71
2022-11-19T10:48:51.398Z,1007.70
2022-11-19T10:51:58.789Z,1007.68
2022-11-19T10:55:06.098Z,1007.65
2022-11-19T10:58:14.009Z,1007.67
2022-11-19T11:01:21.039Z,1007.58
2022-11-19T11:04:29.168Z,1007.59
2022-11-19T11:07:36.630Z,1007.43
2022-11-19T11:10:44.184Z,1007.49
2022-11-19T11:13:51.966Z,1007.42
2022-11-19T11:16:58.831Z,1007.41
2022-11-19T11:20:06.621Z,1007.36
2022-11-19T11:23:13.740Z,1007.35
2022-11-19T11:26:21.580Z,1007.29
2022-11-19T11:29:29.631Z,1007.24
2022-11-19T11:32:36.811Z,1007.20
2022-11-19T11:35:44.702Z,1007.09
2022-11-19T11:38:52.297Z,1007.12
2022-11-19T11:42:05.830Z,1007.15
2022-11-19T11:45:03.634Z,1007.14
2022-11-19T11:48:10.612Z,1007.04
2022-11-19T11:51:18.493Z,1006.97
2022-11-19T11:54:25.872Z,1006.96
2022-11-19T11:57:33.291Z,1006.91
2022-11-19T12:00:41.093Z,1006.88
2022-11-19T12:03:54.855Z,1006.82
2022-11-19T12:06:51.825Z,1006.85
2022-11-19T12:09:59.189Z,1006.80
2022-11-19T12:13:06.715Z,1006.80
2022-11-19T12:16:14.776Z,1006.82
2022-11-19T12:19:22.098Z,1006.80
2022-11-19T12:22:29.735Z,1006.79
2022-11-19T12:25:37.234Z,1006.79
2022-11-19T12:28:44.726Z,1006.75
2022-11-19T12:31:52.476Z,1006.70
2022-11-19T12:34:59.746Z,1006.75
2022-11-19T12:38:07.677Z,1006.78
2022-11-19T12:41:15.369Z,1006.69
2022-11-19T12:44:22.717Z,1006.66
2022-11-19T12:47:30.115Z,1006.69
2022-11-19T12:50:37.589Z,1006.73
2022-11-19T12:53:44.989Z,1006.66
2022-11-19T12:56:52.959Z,1006.69
2022-11-19T12:59:59.929Z,1006.69
2022-11-19T13:03:07.742Z,1006.68
2022-11-19T13:06:18.073Z,1006.65
2022-11-19T13:09:24.970Z,1006.63
2022-11-19T13:12:32.441Z,1006.66
2022-11-19T13:15:39.302Z,1006.58
2022-11-19T13:18:47.143Z,1006.56
2022-11-19T13:21:53.989Z,1006.60
2022-11-19T13:25:01.152Z,1006.51
2022-11-19T13:28:08.619Z,1006.50
2022-11-19T13:31:15.573Z,1006.45
2022-11-19T13:34:23.118Z,1006.48
2022-11-19T13:37:30.180Z,1006.54
2022-11-19T13:40:37.182Z,1006.52
2022-11-19T13:43:44.635Z,1006.52
2022-11-19T13:46:51.814Z,1006.51
2022-11-19T13:49:59.084Z,1006.56
2022-11-19T13:53:06.405Z,1006.53
2022-11-19T13:56:13.576Z,1006.49
2022-11-19T13:59:21.393Z,1006.50
2022-11-19T14:02:28.736Z,1006.53
2022-11-19T14:05:36.436Z,1006.55
2022-11-19T14:08:43.596Z,1006.52
2022-11-19T14:11:50.807Z,1006.51
2022-11-19T14:14:58.147Z,1006.47
2022-11-19T14:18:04.884Z,1006.49
2022-11-19T14:21:12.337Z,1006.44
2022-11-19T14:24:19.748Z,1006.47
2022-11-19T14:27:26.498Z,1006.45
2022-11-19T14:30:33.960Z,1006.51
2022-11-19T14:33:41.060Z,1006.45
2022-11-19T14:36:48.194Z,1006.43
2022-11-19T14:39:55.659Z,1006.40
2022-11-19T14:43:02.639Z,1006.40
2022-11-19T14:46:09.692Z,1006.38
2022-11-19T14:49:17.338Z,1006.41
2022-11-19T14:52:24.681Z,1006.34
2022-11-19T14:55:31.800Z,1006.29
2022-11-19T14:58:39.049Z,1006.37
2022-11-19T15:01:46.582Z,1006.31
2022-11-19T15:04:53.569Z,1006.29
2022-11-19T15:08:00.722Z,1006.37
2022-11-19T15:11:08.151Z,1006.41
2022-11-19T15:14:14.962Z,1006.39
2022-11-19T15:17:22.435Z,1006.32
2022-11-19T15:20:29.756Z,1006.32
2022-11-19T15:23:36.453Z,1006.30
2022-11-19T15:26:43.970Z,1006.29
2022-11-19T15:29:51.205Z,1006.22
2022-11-19T15:32:58.033Z,1006.27
2022-11-19T15:36:05.633Z,1006.21
2022-11-19T15:39:12.344Z,1006.16
2022-11-19T15:42:19.582Z,1006.20
2022-11-19T15:45:27.102Z,1006.17
2022-11-19T15:48:33.755Z,1006.17
2022-11-19T15:51:41.846Z,1006.15
2022-11-19T15:54:49.015Z,1006.08
2022-11-19T15:57:56.557Z,1006.08
2022-11-19T16:01:03.888Z,1006.11
2022-11-19T16:04:10.926Z,1006.06
2022-11-19T16:07:18.123Z,1006.03
2022-11-19T16:10:25.565Z,1006.04
2022-11-19T16:13:32.657Z,1006.06
2022-11-19T16:16:40.117Z,1006.13
2022-11-19T16:19:47.338Z,1006.20
2022-11-19T16:22:54.738Z,1006.18
2022-11-19T16:26:01.798Z,1006.14
2022-11-19T16:29:09.026Z,1006.17
2022-11-19T16:32:16.743Z,1006.07
2022-11-19T16:35:24.178Z,1006.09
2022-11-19T16:38:31.619Z,1006.04
2022-11-19T16:41:39.319Z,1006.00
2022-11-19T16:44:46.839Z,1006.09
2022-11-19T16:47:54.302Z,1005.99
2022-11-19T16:51:01.947Z,1006.02
2022-11-19T16:54:09.401Z,1006.02
2022-11-19T16:57:16.750Z,1006.04
2022-11-19T17:00:24.565Z,1006.01
2022-11-19T17:03:31.568Z,1006.04
2022-11-19T17:06:39.472Z,1006.06
2022-11-19T17:09:46.862Z,1006.11
2022-11-19T17:12:53.871Z,1006.06
2022-11-19T17:16:01.681Z,1006.05
2022-11-19T17:19:09.031Z,1006.08
2022-11-19T17:22:16.422Z,1005.99
2022-11-19T17:25:24.301Z,1006.00
2022-11-19T17:28:31.432Z,1006.09
2022-11-19T17:31:39.510Z,1006.06
2022-11-19T17:34:47.551Z,1006.02
2022-11-19T17:37:55.313Z,1005.95
2022-11-19T17:41:03.014Z,1006.03
2022-11-19T17:44:10.533Z,1006.02
2022-11-19T17:47:22.462Z,1006.15
2022-11-19T17:50:20.279Z,1006.12
2022-11-19T17:53:27.744Z,1006.16
2022-11-19T17:56:35.274Z,1006.10
2022-11-19T17:59:42.992Z,1006.18
2022-11-19T18:02:50.304Z,1006.19
2022-11-19T18:05:58.015Z,1006.13
2022-11-19T18:09:05.386Z,1006.08
2022-11-19T18:12:13.175Z,1006.10
2022-11-19T18:15:20.583Z,1006.07
2022-11-19T18:18:27.895Z,1006.07
2022-11-19T18:21:35.826Z,1006.08
2022-11-19T18:24:42.788Z,1006.09
2022-11-19T18:27:50.389Z,1006.08
2022-11-19T18:30:58.217Z,1006.06
2022-11-19T18:34:05.166Z,1006.13
2022-11-19T18:37:12.976Z,1006.05
2022-11-19T18:40:20.509Z,1006.04
2022-11-19T18:43:27.548Z,1006.11
2022-11-19T18:46:35.515Z,1006.09
2022-11-19T18:49:43.278Z,1006.11
2022-11-19T18:52:50.439Z,1006.04
2022-11-19T18:55:58.178Z,1006.05
2022-11-19T18:59:05.519Z,1006.07
2022-11-19T19:02:13.110Z,1006.09
2022-11-19T19:05:20.728Z,1006.05
2022-11-19T19:08:28.048Z,1006.01
2022-11-19T19:11:35.488Z,1006.03
2022-11-19T19:14:43.421Z,1006.00
2022-11-19T19:17:50.887Z,1006.08
2022-11-19T19:20:58.259Z,1006.10
2022-11-19T19:24:05.629Z,1006.09
2022-11-19T19:27:13.080Z,1006.14
2022-11-19T19:30:20.489Z,1006.14
2022-11-19T19:33:28.008Z,1006.21
2022-11-19T19:36:35.459Z,1006.22
2022-11-19T19:39:42.995Z,1006.17
2022-11-19T19:42:50.503Z,1006.23
2022-11-19T19:45:57.771Z,1006.24
2022-11-19T19:49:05.181Z,1006.25
2022-11-19T19:52:12.941Z,1006.24
2022-11-19T19:55:20.432Z,1006.22
2022-11-19T19:58:28.387Z,1006.30
2022-11-19T20:01:36.429Z,1006.30
2022-11-19T20:04:43.855Z,1006.23
2022-11-19T20:07:51.315Z,1006.23
2022-11-19T20:10:58.911Z,1006.29
2022-11-19T20:14:05.867Z,1006.24
2022-11-19T20:17:13.636Z,1006.28
2022-11-19T20:20:21.236Z,1006.28
2022-11-19T20:23:28.353Z,1006.37
2022-11-19T20:26:36.013Z,1006.37
2022-11-19T20:29:43.954Z,1006.39
2022-11-19T20:32:51.114Z,1006.30
2022-11-19T20:35:58.884Z,1006.39
2022-11-19T20:39:06.343Z,1006.31
2022-11-19T20:42:13.736Z,1006.33
2022-11-19T20:45:21.476Z,1006.40
2022-11-19T20:48:28.848Z,1006.39
2022-11-19T20:51:36.336Z,1006.31
2022-11-19T20:54:44.106Z,1006.29
2022-11-19T20:57:51.656Z,1006.24
2022-11-19T21:00:59.020Z,1006.28
2022-11-19T21:04:06.365Z,1006.28
2022-11-19T21:07:14.230Z,1006.29
2022-11-19T21:10:21.525Z,1006.26
2022-11-19T21:13:29.016Z,1006.23
2022-11-19T21:16:36.746Z,1006.27
2022-11-19T21:19:44.206Z,1006.20
2022-11-19T21:22:51.556Z,1006.14
2022-11-19T21:25:59.243Z,1006.08
2022-11-19T21:29:06.704Z,1006.11
2022-11-19T21:32:14.146Z,1006.03
2022-11-19T21:35:21.596Z,1006.04
2022-11-19T21:38:28.587Z,1005.95
2022-11-19T21:41:35.916Z,1005.99
2022-11-19T21:44:43.908Z,1005.92
2022-11-19T21:47:51.010Z,1006.00
2022-11-19T21:50:58.927Z,1005.94
2022-11-19T21:54:06.609Z,1005.93
2022-11-19T21:57:13.674Z,1005.88
2022-11-19T22:00:21.297Z,1005.85
2022-11-19T22:03:28.496Z,1005.76
2022-11-19T22:06:35.998Z,1005.79
2022-11-19T22:09:43.929Z,1005.72
2022-11-19T22:12:51.208Z,1005.74
2022-11-19T22:15:58.229Z,1005.73
2022-11-19T22:19:05.859Z,1005.69
2022-11-19T22:22:13.465Z,1005.67
2022-11-19T22:25:20.830Z,1005.70
2022-11-19T22:28:28.268Z,1005.67
2022-11-19T22:31:36.080Z,1005.69
2022-11-19T22:34:43.641Z,1005.70
2022-11-19T22:37:51.088Z,1005.68
2022-11-19T22:40:58.549Z,1005.77
2022-11-19T22:44:06.021Z,1005.77
2022-11-19T22:47:13.470Z,1005.78
2022-11-19T22:50:20.741Z,1005.78
2022-11-19T22:53:27.710Z,1005.78
2022-11-19T22:56:35.480Z,1005.77
2022-11-19T22:59:42.650Z,1005.85
2022-11-19T23:02:50.074Z,1005.86
2022-11-19T23:05:57.721Z,1005.86
2022-11-19T23:09:04.913Z,1005.81
2022-11-19T23:12:12.450Z,1005.92
2022-11-19T23:15:20.060Z,1005.80
2022-11-19T23:18:27.022Z,1005.76
2022-11-19T23:21:34.782Z,1005.74
2022-11-19T23:24:42.569Z,1005.76
2022-11-19T23:27:49.535Z,1005.81
2022-11-19T23:30:57.532Z,1005.67
2022-11-19T23:34:05.312Z,1005.72
2022-11-19T23:37:12.374Z,1005.72
2022-11-19T23:40:20.233Z,1005.71
2022-11-19T23:43:27.503Z,1005.71
2022-11-19T23:46:35.009Z,1005.65
2022-11-19T23:49:42.612Z,1005.69
2022-11-19T23:52:49.646Z,1005.64
2022-11-19T23:55:57.634Z,1005.63
2022-11-19T23:59:05.444Z,1005.65
